sensor_id;sensor_type;location;lat;lon;timestamp;P1;durP1;ratioP1;P2;durP2;ratioP2
84796;SDS011;75028;51.374;21.078;2024-02-23T00:04:31;7.80;;;6.00;;
84796;SDS011;75028;51.374;21.078;2024-02-23T00:06:58;10.77;;;7.13;;
84796;SDS011;75028;51.374;21.078;2024-02-23T00:09:24;9.70;;;7.28;;
84796;SDS011;75028;51.374;21.078;2024-02-23T00:14:16;10.43;;;7.50;;
84796;SDS011;75028;51.374;21.078;2024-02-23T00:16:46;10.30;;;6.63;;
84796;SDS011;75028;51.374;21.078;2024-02-23T00:19:13;9.43;;;6.40;;
84796;SDS011;75028;51.374;21.078;2024-02-23T00:21:39;10.23;;;6.93;;
84796;SDS011;75028;51.374;21.078;2024-02-23T00:24:06;10.43;;;6.93;;
84796;SDS011;75028;51.374;21.078;2024-02-23T00:26:32;10.80;;;6.55;;
84796;SDS011;75028;51.374;21.078;2024-02-23T00:28:58;11.98;;;6.50;;
84796;SDS011;75028;51.374;21.078;2024-02-23T00:33:50;8.07;;;5.63;;
84796;SDS011;75028;51.374;21.078;2024-02-23T00:36:17;9.50;;;5.50;;
84796;SDS011;75028;51.374;21.078;2024-02-23T00:38:43;8.48;;;6.03;;
84796;SDS011;75028;51.374;21.078;2024-02-23T00:43:41;8.65;;;5.47;;
84796;SDS011;75028;51.374;21.078;2024-02-23T00:46:08;7.75;;;5.47;;
84796;SDS011;75028;51.374;21.078;2024-02-23T00:48:34;8.82;;;5.82;;
84796;SDS011;75028;51.374;21.078;2024-02-23T00:51:01;8.25;;;5.80;;
84796;SDS011;75028;51.374;21.078;2024-02-23T00:53:30;9.35;;;6.10;;
84796;SDS011;75028;51.374;21.078;2024-02-23T00:55:56;8.43;;;6.18;;
84796;SDS011;75028;51.374;21.078;2024-02-23T00:58:22;7.63;;;5.47;;
84796;SDS011;75028;51.374;21.078;2024-02-23T01:00:48;8.93;;;4.88;;
84796;SDS011;75028;51.374;21.078;2024-02-23T01:03:14;8.88;;;5.65;;
84796;SDS011;75028;51.374;21.078;2024-02-23T01:08:08;7.30;;;5.15;;
84796;SDS011;75028;51.374;21.078;2024-02-23T01:10:34;9.60;;;5.95;;
84796;SDS011;75028;51.374;21.078;2024-02-23T01:13:00;8.00;;;5.40;;
84796;SDS011;75028;51.374;21.078;2024-02-23T01:17:52;7.22;;;4.80;;
84796;SDS011;75028;51.374;21.078;2024-02-23T01:20:19;7.47;;;5.25;;
84796;SDS011;75028;51.374;21.078;2024-02-23T01:22:45;6.38;;;5.00;;
84796;SDS011;75028;51.374;21.078;2024-02-23T01:25:12;7.60;;;5.07;;
84796;SDS011;75028;51.374;21.078;2024-02-23T01:27:38;7.53;;;4.60;;
84796;SDS011;75028;51.374;21.078;2024-02-23T01:30:04;7.22;;;4.70;;
84796;SDS011;75028;51.374;21.078;2024-02-23T01:32:30;9.40;;;5.03;;
84796;SDS011;75028;51.374;21.078;2024-02-23T01:34:57;7.03;;;4.75;;
84796;SDS011;75028;51.374;21.078;2024-02-23T01:37:22;7.03;;;4.85;;
84796;SDS011;75028;51.374;21.078;2024-02-23T01:39:49;7.75;;;4.90;;
84796;SDS011;75028;51.374;21.078;2024-02-23T01:42:15;10.20;;;5.07;;
84796;SDS011;75028;51.374;21.078;2024-02-23T01:47:07;7.57;;;5.22;;
84796;SDS011;75028;51.374;21.078;2024-02-23T01:52:00;6.82;;;4.55;;
84796;SDS011;75028;51.374;21.078;2024-02-23T01:54:28;5.95;;;4.22;;
84796;SDS011;75028;51.374;21.078;2024-02-23T01:56:55;7.65;;;5.05;;
84796;SDS011;75028;51.374;21.078;2024-02-23T01:59:23;6.65;;;4.75;;
84796;SDS011;75028;51.374;21.078;2024-02-23T02:01:51;7.30;;;4.93;;
84796;SDS011;75028;51.374;21.078;2024-02-23T02:04:17;6.65;;;4.60;;
84796;SDS011;75028;51.374;21.078;2024-02-23T02:06:44;7.03;;;4.43;;
84796;SDS011;75028;51.374;21.078;2024-02-23T02:09:12;5.68;;;4.28;;
84796;SDS011;75028;51.374;21.078;2024-02-23T02:11:47;7.28;;;4.85;;
84796;SDS011;75028;51.374;21.078;2024-02-23T02:14:14;6.22;;;4.20;;
84796;SDS011;75028;51.374;21.078;2024-02-23T02:16:41;6.72;;;5.13;;
84796;SDS011;75028;51.374;21.078;2024-02-23T02:19:12;6.30;;;4.43;;
84796;SDS011;75028;51.374;21.078;2024-02-23T02:21:40;6.35;;;4.38;;
84796;SDS011;75028;51.374;21.078;2024-02-23T02:24:07;6.93;;;4.45;;
84796;SDS011;75028;51.374;21.078;2024-02-23T02:26:34;6.22;;;3.97;;
84796;SDS011;75028;51.374;21.078;2024-02-23T02:29:01;6.25;;;4.35;;
84796;SDS011;75028;51.374;21.078;2024-02-23T02:31:27;6.55;;;4.28;;
84796;SDS011;75028;51.374;21.078;2024-02-23T02:33:53;9.15;;;4.50;;
84796;SDS011;75028;51.374;21.078;2024-02-23T02:36:19;6.35;;;4.03;;
84796;SDS011;75028;51.374;21.078;2024-02-23T02:41:10;5.18;;;3.53;;
84796;SDS011;75028;51.374;21.078;2024-02-23T02:46:02;6.90;;;3.65;;
84796;SDS011;75028;51.374;21.078;2024-02-23T02:50:54;4.50;;;3.20;;
84796;SDS011;75028;51.374;21.078;2024-02-23T02:55:47;6.35;;;3.50;;
84796;SDS011;75028;51.374;21.078;2024-02-23T03:00:39;7.82;;;3.30;;
84796;SDS011;75028;51.374;21.078;2024-02-23T03:03:05;6.70;;;4.07;;
84796;SDS011;75028;51.374;21.078;2024-02-23T03:05:31;5.38;;;3.35;;
84796;SDS011;75028;51.374;21.078;2024-02-23T03:10:24;5.15;;;3.05;;
84796;SDS011;75028;51.374;21.078;2024-02-23T03:15:15;4.25;;;3.00;;
84796;SDS011;75028;51.374;21.078;2024-02-23T03:17:42;5.28;;;3.47;;
84796;SDS011;75028;51.374;21.078;2024-02-23T03:20:08;5.55;;;3.13;;
84796;SDS011;75028;51.374;21.078;2024-02-23T03:22:35;4.50;;;3.20;;
84796;SDS011;75028;51.374;21.078;2024-02-23T03:25:01;5.53;;;3.08;;
84796;SDS011;75028;51.374;21.078;2024-02-23T03:27:34;7.93;;;3.15;;
84796;SDS011;75028;51.374;21.078;2024-02-23T03:30:04;5.53;;;2.88;;
84796;SDS011;75028;51.374;21.078;2024-02-23T03:32:31;4.25;;;2.72;;
84796;SDS011;75028;51.374;21.078;2024-02-23T03:35:02;5.18;;;3.10;;
84796;SDS011;75028;51.374;21.078;2024-02-23T03:37:29;3.88;;;2.83;;
84796;SDS011;75028;51.374;21.078;2024-02-23T03:42:22;5.50;;;3.13;;
84796;SDS011;75028;51.374;21.078;2024-02-23T03:44:47;3.97;;;2.92;;
84796;SDS011;75028;51.374;21.078;2024-02-23T03:47:14;4.03;;;2.47;;
84796;SDS011;75028;51.374;21.078;2024-02-23T03:49:40;4.38;;;2.85;;
84796;SDS011;75028;51.374;21.078;2024-02-23T03:52:06;5.20;;;2.70;;
84796;SDS011;75028;51.374;21.078;2024-02-23T03:54:32;4.35;;;2.53;;
84796;SDS011;75028;51.374;21.078;2024-02-23T03:56:58;4.85;;;2.83;;
84796;SDS011;75028;51.374;21.078;2024-02-23T03:59:24;3.13;;;2.63;;
84796;SDS011;75028;51.374;21.078;2024-02-23T04:01:50;4.70;;;2.80;;
84796;SDS011;75028;51.374;21.078;2024-02-23T04:04:17;5.35;;;2.80;;
84796;SDS011;75028;51.374;21.078;2024-02-23T04:06:43;4.38;;;2.50;;
84796;SDS011;75028;51.374;21.078;2024-02-23T04:09:09;3.92;;;3.00;;
84796;SDS011;75028;51.374;21.078;2024-02-23T04:11:35;3.65;;;2.63;;
84796;SDS011;75028;51.374;21.078;2024-02-23T04:14:01;4.22;;;2.78;;
84796;SDS011;75028;51.374;21.078;2024-02-23T04:16:28;3.60;;;2.45;;
84796;SDS011;75028;51.374;21.078;2024-02-23T04:18:54;4.28;;;3.00;;
84796;SDS011;75028;51.374;21.078;2024-02-23T04:21:22;3.90;;;2.63;;
84796;SDS011;75028;51.374;21.078;2024-02-23T04:23:48;4.45;;;3.08;;
84796;SDS011;75028;51.374;21.078;2024-02-23T04:28:40;3.80;;;2.85;;
84796;SDS011;75028;51.374;21.078;2024-02-23T04:31:10;4.50;;;2.50;;
84796;SDS011;75028;51.374;21.078;2024-02-23T04:33:36;5.20;;;3.00;;
84796;SDS011;75028;51.374;21.078;2024-02-23T04:36:03;4.35;;;2.22;;
84796;SDS011;75028;51.374;21.078;2024-02-23T04:38:30;4.55;;;3.03;;
84796;SDS011;75028;51.374;21.078;2024-02-23T04:40:57;5.70;;;2.80;;
84796;SDS011;75028;51.374;21.078;2024-02-23T04:43:24;4.43;;;2.83;;
84796;SDS011;75028;51.374;21.078;2024-02-23T04:45:51;4.18;;;3.08;;
84796;SDS011;75028;51.374;21.078;2024-02-23T04:48:17;5.22;;;2.88;;
84796;SDS011;75028;51.374;21.078;2024-02-23T04:50:43;3.45;;;2.60;;
84796;SDS011;75028;51.374;21.078;2024-02-23T04:53:09;4.10;;;2.90;;
84796;SDS011;75028;51.374;21.078;2024-02-23T04:55:35;6.38;;;2.63;;
84796;SDS011;75028;51.374;21.078;2024-02-23T04:58:01;4.63;;;2.80;;
84796;SDS011;75028;51.374;21.078;2024-02-23T05:02:59;4.15;;;2.75;;
84796;SDS011;75028;51.374;21.078;2024-02-23T05:05:31;4.03;;;2.70;;
84796;SDS011;75028;51.374;21.078;2024-02-23T05:07:58;3.78;;;2.63;;
84796;SDS011;75028;51.374;21.078;2024-02-23T05:10:25;4.63;;;2.53;;
84796;SDS011;75028;51.374;21.078;2024-02-23T05:12:51;3.72;;;2.70;;
84796;SDS011;75028;51.374;21.078;2024-02-23T05:17:43;5.13;;;2.90;;
84796;SDS011;75028;51.374;21.078;2024-02-23T05:22:36;6.65;;;3.08;;
84796;SDS011;75028;51.374;21.078;2024-02-23T05:25:02;6.03;;;3.17;;
84796;SDS011;75028;51.374;21.078;2024-02-23T05:27:30;6.28;;;3.25;;
84796;SDS011;75028;51.374;21.078;2024-02-23T05:29:57;6.28;;;3.13;;
84796;SDS011;75028;51.374;21.078;2024-02-23T05:32:23;4.75;;;2.72;;
84796;SDS011;75028;51.374;21.078;2024-02-23T05:34:49;4.22;;;2.97;;
84796;SDS011;75028;51.374;21.078;2024-02-23T05:37:18;4.50;;;3.15;;
84796;SDS011;75028;51.374;21.078;2024-02-23T05:39:45;5.90;;;3.10;;
84796;SDS011;75028;51.374;21.078;2024-02-23T05:42:14;5.63;;;3.10;;
84796;SDS011;75028;51.374;21.078;2024-02-23T05:44:44;5.22;;;3.00;;
84796;SDS011;75028;51.374;21.078;2024-02-23T05:47:10;4.95;;;3.35;;
84796;SDS011;75028;51.374;21.078;2024-02-23T05:49:37;3.90;;;2.67;;
84796;SDS011;75028;51.374;21.078;2024-02-23T05:52:02;5.45;;;2.80;;
84796;SDS011;75028;51.374;21.078;2024-02-23T05:54:29;7.57;;;3.22;;
84796;SDS011;75028;51.374;21.078;2024-02-23T05:56:55;5.00;;;3.20;;
84796;SDS011;75028;51.374;21.078;2024-02-23T05:59:21;8.07;;;3.05;;
84796;SDS011;75028;51.374;21.078;2024-02-23T06:01:47;6.78;;;3.53;;
84796;SDS011;75028;51.374;21.078;2024-02-23T06:06:42;4.10;;;2.88;;
84796;SDS011;75028;51.374;21.078;2024-02-23T06:09:09;6.18;;;3.45;;
84796;SDS011;75028;51.374;21.078;2024-02-23T06:11:35;5.38;;;3.90;;
84796;SDS011;75028;51.374;21.078;2024-02-23T06:16:27;5.25;;;3.35;;
84796;SDS011;75028;51.374;21.078;2024-02-23T06:18:54;5.47;;;3.78;;
84796;SDS011;75028;51.374;21.078;2024-02-23T06:23:46;6.00;;;3.63;;
84796;SDS011;75028;51.374;21.078;2024-02-23T06:26:12;8.10;;;3.85;;
84796;SDS011;75028;51.374;21.078;2024-02-23T06:28:38;7.00;;;4.88;;
84796;SDS011;75028;51.374;21.078;2024-02-23T06:31:07;8.07;;;4.43;;
84796;SDS011;75028;51.374;21.078;2024-02-23T06:33:33;7.22;;;4.40;;
84796;SDS011;75028;51.374;21.078;2024-02-23T06:36:00;7.28;;;4.18;;
84796;SDS011;75028;51.374;21.078;2024-02-23T06:40:55;8.60;;;4.18;;
84796;SDS011;75028;51.374;21.078;2024-02-23T06:43:22;9.85;;;5.18;;
84796;SDS011;75028;51.374;21.078;2024-02-23T06:45:48;8.68;;;5.85;;
84796;SDS011;75028;51.374;21.078;2024-02-23T06:50:40;6.80;;;4.30;;
84796;SDS011;75028;51.374;21.078;2024-02-23T06:53:06;8.45;;;4.57;;
84796;SDS011;75028;51.374;21.078;2024-02-23T06:55:33;7.70;;;5.03;;
84796;SDS011;75028;51.374;21.078;2024-02-23T06:58:00;8.73;;;5.03;;
84796;SDS011;75028;51.374;21.078;2024-02-23T07:00:26;8.77;;;5.82;;
84796;SDS011;75028;51.374;21.078;2024-02-23T07:02:52;10.30;;;5.93;;
84796;SDS011;75028;51.374;21.078;2024-02-23T07:05:18;9.88;;;6.55;;
84796;SDS011;75028;51.374;21.078;2024-02-23T07:07:44;11.98;;;5.88;;
84796;SDS011;75028;51.374;21.078;2024-02-23T07:10:10;13.23;;;7.63;;
84796;SDS011;75028;51.374;21.078;2024-02-23T07:12:37;10.40;;;5.85;;
84796;SDS011;75028;51.374;21.078;2024-02-23T07:17:31;12.98;;;6.22;;
84796;SDS011;75028;51.374;21.078;2024-02-23T07:19:57;9.93;;;6.20;;
84796;SDS011;75028;51.374;21.078;2024-02-23T07:22:31;8.63;;;6.45;;
84796;SDS011;75028;51.374;21.078;2024-02-23T07:24:58;7.93;;;5.80;;
84796;SDS011;75028;51.374;21.078;2024-02-23T07:27:24;10.35;;;6.18;;
84796;SDS011;75028;51.374;21.078;2024-02-23T07:32:15;13.32;;;6.78;;
84796;SDS011;75028;51.374;21.078;2024-02-23T07:34:42;12.57;;;7.10;;
84796;SDS011;75028;51.374;21.078;2024-02-23T07:37:08;9.55;;;6.63;;
84796;SDS011;75028;51.374;21.078;2024-02-23T07:39:35;10.73;;;6.85;;
84796;SDS011;75028;51.374;21.078;2024-02-23T07:42:01;12.00;;;7.35;;
84796;SDS011;75028;51.374;21.078;2024-02-23T07:44:28;11.40;;;7.10;;
84796;SDS011;75028;51.374;21.078;2024-02-23T07:46:54;10.52;;;6.97;;
84796;SDS011;75028;51.374;21.078;2024-02-23T07:49:21;10.57;;;6.80;;
84796;SDS011;75028;51.374;21.078;2024-02-23T07:51:50;12.45;;;7.75;;
84796;SDS011;75028;51.374;21.078;2024-02-23T07:56:42;11.68;;;6.82;;
84796;SDS011;75028;51.374;21.078;2024-02-23T07:59:08;11.02;;;6.30;;
84796;SDS011;75028;51.374;21.078;2024-02-23T08:01:34;11.65;;;7.35;;
84796;SDS011;75028;51.374;21.078;2024-02-23T08:04:00;9.68;;;6.72;;
84796;SDS011;75028;51.374;21.078;2024-02-23T08:06:26;11.38;;;7.15;;
84796;SDS011;75028;51.374;21.078;2024-02-23T08:08:52;12.88;;;8.00;;
84796;SDS011;75028;51.374;21.078;2024-02-23T08:11:19;13.75;;;7.85;;
84796;SDS011;75028;51.374;21.078;2024-02-23T08:16:11;12.25;;;7.28;;
84796;SDS011;75028;51.374;21.078;2024-02-23T08:18:37;11.80;;;7.07;;
84796;SDS011;75028;51.374;21.078;2024-02-23T08:21:04;9.35;;;6.93;;
84796;SDS011;75028;51.374;21.078;2024-02-23T08:23:31;10.32;;;6.78;;
84796;SDS011;75028;51.374;21.078;2024-02-23T08:25:57;9.98;;;6.70;;
84796;SDS011;75028;51.374;21.078;2024-02-23T08:28:24;8.10;;;6.28;;
84796;SDS011;75028;51.374;21.078;2024-02-23T08:30:50;11.65;;;6.68;;
84796;SDS011;75028;51.374;21.078;2024-02-23T08:35:42;10.00;;;6.00;;
84796;SDS011;75028;51.374;21.078;2024-02-23T08:38:08;8.48;;;5.43;;
84796;SDS011;75028;51.374;21.078;2024-02-23T08:40:34;9.23;;;6.22;;
84796;SDS011;75028;51.374;21.078;2024-02-23T08:45:26;12.65;;;6.25;;
84796;SDS011;75028;51.374;21.078;2024-02-23T08:47:52;7.35;;;6.05;;
84796;SDS011;75028;51.374;21.078;2024-02-23T08:50:18;10.68;;;6.65;;
84796;SDS011;75028;51.374;21.078;2024-02-23T08:52:44;9.80;;;6.15;;
84796;SDS011;75028;51.374;21.078;2024-02-23T08:55:10;11.10;;;6.28;;
84796;SDS011;75028;51.374;21.078;2024-02-23T08:57:37;8.73;;;6.20;;
84796;SDS011;75028;51.374;21.078;2024-02-23T09:00:04;10.15;;;6.63;;
84796;SDS011;75028;51.374;21.078;2024-02-23T09:02:31;12.45;;;7.20;;
84796;SDS011;75028;51.374;21.078;2024-02-23T09:05:01;9.27;;;6.35;;
84796;SDS011;75028;51.374;21.078;2024-02-23T09:07:27;8.52;;;6.78;;
84796;SDS011;75028;51.374;21.078;2024-02-23T09:09:53;12.73;;;7.22;;
84796;SDS011;75028;51.374;21.078;2024-02-23T09:12:20;12.65;;;7.30;;
84796;SDS011;75028;51.374;21.078;2024-02-23T09:14:46;16.30;;;6.72;;
84796;SDS011;75028;51.374;21.078;2024-02-23T09:17:13;11.30;;;6.93;;
84796;SDS011;75028;51.374;21.078;2024-02-23T09:19:40;12.10;;;6.95;;
84796;SDS011;75028;51.374;21.078;2024-02-23T09:22:06;9.80;;;6.80;;
84796;SDS011;75028;51.374;21.078;2024-02-23T09:24:32;12.30;;;7.43;;
84796;SDS011;75028;51.374;21.078;2024-02-23T09:26:59;9.93;;;6.75;;
84796;SDS011;75028;51.374;21.078;2024-02-23T09:29:24;10.00;;;6.97;;
84796;SDS011;75028;51.374;21.078;2024-02-23T09:31:51;10.30;;;6.43;;
84796;SDS011;75028;51.374;21.078;2024-02-23T09:34:18;10.40;;;6.68;;
84796;SDS011;75028;51.374;21.078;2024-02-23T09:36:44;10.50;;;6.65;;
84796;SDS011;75028;51.374;21.078;2024-02-23T09:39:10;9.15;;;6.32;;
84796;SDS011;75028;51.374;21.078;2024-02-23T09:41:36;13.05;;;7.28;;
84796;SDS011;75028;51.374;21.078;2024-02-23T09:44:04;9.32;;;7.10;;
84796;SDS011;75028;51.374;21.078;2024-02-23T09:46:33;10.90;;;7.40;;
84796;SDS011;75028;51.374;21.078;2024-02-23T09:49:01;11.02;;;7.63;;
84796;SDS011;75028;51.374;21.078;2024-02-23T09:51:29;11.85;;;7.03;;
84796;SDS011;75028;51.374;21.078;2024-02-23T09:53:57;11.88;;;7.60;;
84796;SDS011;75028;51.374;21.078;2024-02-23T09:56:24;11.65;;;7.32;;
84796;SDS011;75028;51.374;21.078;2024-02-23T09:58:55;9.45;;;7.18;;
84796;SDS011;75028;51.374;21.078;2024-02-23T10:01:32;10.65;;;7.45;;
84796;SDS011;75028;51.374;21.078;2024-02-23T10:03:59;13.50;;;7.18;;
84796;SDS011;75028;51.374;21.078;2024-02-23T10:06:26;12.13;;;7.65;;
84796;SDS011;75028;51.374;21.078;2024-02-23T10:08:53;10.25;;;6.53;;
84796;SDS011;75028;51.374;21.078;2024-02-23T10:11:20;12.20;;;7.07;;
84796;SDS011;75028;51.374;21.078;2024-02-23T10:13:50;11.38;;;7.65;;
84796;SDS011;75028;51.374;21.078;2024-02-23T10:16:18;11.50;;;6.93;;
84796;SDS011;75028;51.374;21.078;2024-02-23T10:18:48;9.20;;;6.88;;
84796;SDS011;75028;51.374;21.078;2024-02-23T10:21:15;14.00;;;7.22;;
84796;SDS011;75028;51.374;21.078;2024-02-23T10:23:43;11.88;;;7.18;;
84796;SDS011;75028;51.374;21.078;2024-02-23T10:26:10;10.85;;;6.35;;
84796;SDS011;75028;51.374;21.078;2024-02-23T10:28:36;11.52;;;6.65;;
84796;SDS011;75028;51.374;21.078;2024-02-23T10:31:06;9.85;;;6.80;;
84796;SDS011;75028;51.374;21.078;2024-02-23T10:35:58;13.15;;;6.25;;
84796;SDS011;75028;51.374;21.078;2024-02-23T10:38:26;10.50;;;7.18;;
84796;SDS011;75028;51.374;21.078;2024-02-23T10:40:55;11.95;;;7.45;;
84796;SDS011;75028;51.374;21.078;2024-02-23T10:43:30;15.13;;;7.95;;
84796;SDS011;75028;51.374;21.078;2024-02-23T10:46:01;14.52;;;8.73;;
84796;SDS011;75028;51.374;21.078;2024-02-23T10:48:33;12.50;;;7.68;;
84796;SDS011;75028;51.374;21.078;2024-02-23T10:51:01;15.73;;;8.88;;
84796;SDS011;75028;51.374;21.078;2024-02-23T10:53:31;20.20;;;11.32;;
84796;SDS011;75028;51.374;21.078;2024-02-23T10:55:58;15.38;;;9.65;;
84796;SDS011;75028;51.374;21.078;2024-02-23T10:58:25;17.05;;;10.10;;
84796;SDS011;75028;51.374;21.078;2024-02-23T11:03:18;13.48;;;9.93;;
84796;SDS011;75028;51.374;21.078;2024-02-23T11:05:48;15.65;;;9.10;;
84796;SDS011;75028;51.374;21.078;2024-02-23T11:08:17;14.20;;;8.57;;
84796;SDS011;75028;51.374;21.078;2024-02-23T11:10:51;15.43;;;9.68;;
84796;SDS011;75028;51.374;21.078;2024-02-23T11:13:17;12.00;;;8.00;;
84796;SDS011;75028;51.374;21.078;2024-02-23T11:15:44;13.05;;;8.35;;
84796;SDS011;75028;51.374;21.078;2024-02-23T11:18:22;15.57;;;8.32;;
84796;SDS011;75028;51.374;21.078;2024-02-23T11:20:58;12.25;;;8.43;;
84796;SDS011;75028;51.374;21.078;2024-02-23T11:23:26;11.93;;;8.30;;
84796;SDS011;75028;51.374;21.078;2024-02-23T11:25:59;13.02;;;8.23;;
84796;SDS011;75028;51.374;21.078;2024-02-23T11:28:55;13.98;;;9.27;;
84796;SDS011;75028;51.374;21.078;2024-02-23T11:31:24;14.93;;;9.13;;
84796;SDS011;75028;51.374;21.078;2024-02-23T11:33:55;15.65;;;9.85;;
84796;SDS011;75028;51.374;21.078;2024-02-23T11:36:29;14.82;;;8.18;;
84796;SDS011;75028;51.374;21.078;2024-02-23T11:38:57;15.32;;;9.90;;
84796;SDS011;75028;51.374;21.078;2024-02-23T11:41:25;16.40;;;10.52;;
84796;SDS011;75028;51.374;21.078;2024-02-23T11:43:52;18.65;;;10.98;;
84796;SDS011;75028;51.374;21.078;2024-02-23T11:46:20;16.83;;;10.18;;
84796;SDS011;75028;51.374;21.078;2024-02-23T11:48:46;12.95;;;9.35;;
84796;SDS011;75028;51.374;21.078;2024-02-23T11:53:40;13.93;;;9.18;;
84796;SDS011;75028;51.374;21.078;2024-02-23T11:56:07;15.95;;;10.02;;
84796;SDS011;75028;51.374;21.078;2024-02-23T11:58:33;16.58;;;10.65;;
84796;SDS011;75028;51.374;21.078;2024-02-23T12:01:00;15.32;;;9.48;;
84796;SDS011;75028;51.374;21.078;2024-02-23T12:03:28;17.20;;;10.13;;
84796;SDS011;75028;51.374;21.078;2024-02-23T12:05:59;17.38;;;11.02;;
84796;SDS011;75028;51.374;21.078;2024-02-23T12:08:26;15.73;;;10.50;;
84796;SDS011;75028;51.374;21.078;2024-02-23T12:10:56;16.40;;;10.40;;
84796;SDS011;75028;51.374;21.078;2024-02-23T12:13:25;15.50;;;9.45;;
84796;SDS011;75028;51.374;21.078;2024-02-23T12:15:53;16.48;;;9.75;;
84796;SDS011;75028;51.374;21.078;2024-02-23T12:18:22;16.98;;;10.05;;
84796;SDS011;75028;51.374;21.078;2024-02-23T12:21:01;16.63;;;10.30;;
84796;SDS011;75028;51.374;21.078;2024-02-23T12:23:49;17.75;;;10.52;;
84796;SDS011;75028;51.374;21.078;2024-02-23T12:26:16;21.23;;;10.02;;
84796;SDS011;75028;51.374;21.078;2024-02-23T12:28:43;15.32;;;9.65;;
84796;SDS011;75028;51.374;21.078;2024-02-23T12:31:10;15.90;;;9.68;;
84796;SDS011;75028;51.374;21.078;2024-02-23T12:33:37;16.30;;;9.80;;
84796;SDS011;75028;51.374;21.078;2024-02-23T12:36:05;14.88;;;9.70;;
84796;SDS011;75028;51.374;21.078;2024-02-23T12:38:33;17.80;;;9.63;;
84796;SDS011;75028;51.374;21.078;2024-02-23T12:41:00;17.60;;;10.63;;
84796;SDS011;75028;51.374;21.078;2024-02-23T12:43:28;15.23;;;9.52;;
84796;SDS011;75028;51.374;21.078;2024-02-23T12:45:55;13.98;;;9.10;;
84796;SDS011;75028;51.374;21.078;2024-02-23T12:48:22;12.50;;;7.85;;
84796;SDS011;75028;51.374;21.078;2024-02-23T12:50:49;14.18;;;9.93;;
84796;SDS011;75028;51.374;21.078;2024-02-23T12:56:03;12.93;;;9.32;;
84796;SDS011;75028;51.374;21.078;2024-02-23T12:58:31;13.48;;;8.88;;
84796;SDS011;75028;51.374;21.078;2024-02-23T13:00:57;13.95;;;9.15;;
84796;SDS011;75028;51.374;21.078;2024-02-23T13:03:24;13.75;;;10.82;;
84796;SDS011;75028;51.374;21.078;2024-02-23T13:05:53;16.05;;;10.20;;
84796;SDS011;75028;51.374;21.078;2024-02-23T13:08:23;15.57;;;9.63;;
84796;SDS011;75028;51.374;21.078;2024-02-23T13:10:50;13.80;;;9.43;;
84796;SDS011;75028;51.374;21.078;2024-02-23T13:13:18;15.02;;;10.18;;
84796;SDS011;75028;51.374;21.078;2024-02-23T13:15:46;16.38;;;10.38;;
84796;SDS011;75028;51.374;21.078;2024-02-23T13:18:12;14.10;;;9.75;;
84796;SDS011;75028;51.374;21.078;2024-02-23T13:20:39;16.58;;;10.25;;
84796;SDS011;75028;51.374;21.078;2024-02-23T13:23:11;15.57;;;9.23;;
84796;SDS011;75028;51.374;21.078;2024-02-23T13:25:39;15.30;;;9.88;;
84796;SDS011;75028;51.374;21.078;2024-02-23T13:28:05;16.08;;;10.65;;
84796;SDS011;75028;51.374;21.078;2024-02-23T13:30:32;16.73;;;11.18;;
84796;SDS011;75028;51.374;21.078;2024-02-23T13:32:59;18.45;;;11.30;;
84796;SDS011;75028;51.374;21.078;2024-02-23T13:35:26;15.38;;;10.60;;
84796;SDS011;75028;51.374;21.078;2024-02-23T13:37:52;16.30;;;10.20;;
84796;SDS011;75028;51.374;21.078;2024-02-23T13:40:19;15.18;;;9.38;;
84796;SDS011;75028;51.374;21.078;2024-02-23T13:42:45;14.10;;;9.40;;
84796;SDS011;75028;51.374;21.078;2024-02-23T13:45:15;20.90;;;10.40;;
84796;SDS011;75028;51.374;21.078;2024-02-23T13:47:42;16.15;;;9.90;;
84796;SDS011;75028;51.374;21.078;2024-02-23T13:50:10;18.88;;;11.50;;
84796;SDS011;75028;51.374;21.078;2024-02-23T13:52:37;15.02;;;9.95;;
84796;SDS011;75028;51.374;21.078;2024-02-23T13:55:03;13.85;;;10.20;;
84796;SDS011;75028;51.374;21.078;2024-02-23T13:57:29;17.65;;;11.43;;
84796;SDS011;75028;51.374;21.078;2024-02-23T13:59:55;20.38;;;11.68;;
84796;SDS011;75028;51.374;21.078;2024-02-23T14:02:25;18.90;;;12.68;;
84796;SDS011;75028;51.374;21.078;2024-02-23T14:05:00;16.65;;;11.32;;
84796;SDS011;75028;51.374;21.078;2024-02-23T14:07:32;18.10;;;11.52;;
84796;SDS011;75028;51.374;21.078;2024-02-23T14:09:59;19.17;;;12.45;;
84796;SDS011;75028;51.374;21.078;2024-02-23T14:12:25;20.50;;;12.15;;
84796;SDS011;75028;51.374;21.078;2024-02-23T14:14:51;24.15;;;14.57;;
84796;SDS011;75028;51.374;21.078;2024-02-23T14:17:17;24.25;;;12.90;;
84796;SDS011;75028;51.374;21.078;2024-02-23T14:19:44;20.85;;;13.40;;
84796;SDS011;75028;51.374;21.078;2024-02-23T14:24:36;26.92;;;16.45;;
84796;SDS011;75028;51.374;21.078;2024-02-23T14:27:02;28.33;;;16.77;;
84796;SDS011;75028;51.374;21.078;2024-02-23T14:29:28;32.13;;;18.85;;
84796;SDS011;75028;51.374;21.078;2024-02-23T14:31:54;42.97;;;21.70;;
84796;SDS011;75028;51.374;21.078;2024-02-23T14:34:21;27.55;;;15.90;;
84796;SDS011;75028;51.374;21.078;2024-02-23T14:36:49;30.80;;;18.77;;
84796;SDS011;75028;51.374;21.078;2024-02-23T14:39:16;34.53;;;19.63;;
84796;SDS011;75028;51.374;21.078;2024-02-23T14:41:42;31.70;;;18.48;;
84796;SDS011;75028;51.374;21.078;2024-02-23T14:44:08;33.03;;;18.33;;
84796;SDS011;75028;51.374;21.078;2024-02-23T14:46:34;39.03;;;20.95;;
84796;SDS011;75028;51.374;21.078;2024-02-23T14:49:01;26.95;;;15.70;;
84796;SDS011;75028;51.374;21.078;2024-02-23T14:51:27;25.80;;;16.65;;
84796;SDS011;75028;51.374;21.078;2024-02-23T14:53:53;31.38;;;18.48;;
84796;SDS011;75028;51.374;21.078;2024-02-23T14:56:19;39.35;;;19.73;;
84796;SDS011;75028;51.374;21.078;2024-02-23T15:01:11;39.17;;;20.27;;
84796;SDS011;75028;51.374;21.078;2024-02-23T15:03:38;40.00;;;21.50;;
84796;SDS011;75028;51.374;21.078;2024-02-23T15:06:04;41.40;;;22.15;;
84796;SDS011;75028;51.374;21.078;2024-02-23T15:08:31;28.73;;;16.08;;
84796;SDS011;75028;51.374;21.078;2024-02-23T15:10:57;26.58;;;17.02;;
84796;SDS011;75028;51.374;21.078;2024-02-23T15:13:23;28.15;;;15.95;;
84796;SDS011;75028;51.374;21.078;2024-02-23T15:15:50;26.17;;;14.30;;
84796;SDS011;75028;51.374;21.078;2024-02-23T15:18:16;22.15;;;14.60;;
84796;SDS011;75028;51.374;21.078;2024-02-23T15:20:42;25.33;;;14.20;;
84796;SDS011;75028;51.374;21.078;2024-02-23T15:23:09;26.55;;;13.88;;
84796;SDS011;75028;51.374;21.078;2024-02-23T15:25:34;20.92;;;12.60;;
84796;SDS011;75028;51.374;21.078;2024-02-23T15:28:01;22.77;;;12.98;;
84796;SDS011;75028;51.374;21.078;2024-02-23T15:32:53;22.58;;;12.18;;
84796;SDS011;75028;51.374;21.078;2024-02-23T15:35:19;25.55;;;14.35;;
84796;SDS011;75028;51.374;21.078;2024-02-23T15:37:46;28.63;;;15.43;;
84796;SDS011;75028;51.374;21.078;2024-02-23T15:40:12;26.48;;;14.55;;
84796;SDS011;75028;51.374;21.078;2024-02-23T15:42:38;29.00;;;17.63;;
84796;SDS011;75028;51.374;21.078;2024-02-23T15:45:04;38.03;;;20.63;;
84796;SDS011;75028;51.374;21.078;2024-02-23T15:47:33;40.97;;;22.33;;
84796;SDS011;75028;51.374;21.078;2024-02-23T15:49:59;41.85;;;22.83;;
84796;SDS011;75028;51.374;21.078;2024-02-23T15:52:26;49.58;;;24.60;;
84796;SDS011;75028;51.374;21.078;2024-02-23T15:54:52;44.60;;;24.00;;
84796;SDS011;75028;51.374;21.078;2024-02-23T15:57:18;41.35;;;24.27;;